Time;durP1;ratioP1;P1;durP2;ratioP2;P2;SDS_P1;SDS_P2;PMS_P1;PMS_P2;Temp;Humidity;BMP_temperature;BMP_pressure;BME280_temperature;BME280_humidity;BME280_pressure;Samples;Min_cycle;Max_cycle;Signal;HPM_P1;HPM_P2
2023/06/30 00:00:15;;;;;;;2.97;1.40;;;;;;;14.95;80.84;101568.16;4998369;28;20041;-75
2023/06/30 00:02:46;;;;;;;1.58;1.15;;;;;;;14.92;80.81;101557.78;4980466;28;20042;-76
2023/06/30 00:05:13;;;;;;;1.35;1.10;;;;;;;14.91;80.78;101566.59;5015221;28;20042;-75
2023/06/30 00:07:39;;;;;;;1.30;1.17;;;;;;;14.87;80.71;101571.16;5017649;28;20299;-75
2023/06/30 00:10:06;;;;;;;3.75;1.67;;;;;;;14.85;80.82;101569.53;4982702;28;20031;-75
2023/06/30 00:12:32;;;;;;;1.83;1.13;;;;;;;14.83;80.92;101566.13;4961214;28;20284;-75
2023/06/30 00:14:57;;;;;;;1.20;1.10;;;;;;;14.81;80.76;101571.47;4960353;28;20026;-75
2023/06/30 00:17:23;;;;;;;2.65;1.52;;;;;;;14.77;81.02;101568.13;4977208;28;20321;-75
2023/06/30 00:19:50;;;;;;;1.98;1.50;;;;;;;14.76;80.74;101571.66;4978080;28;20031;-75
2023/06/30 00:22:19;;;;;;;1.67;1.30;;;;;;;14.73;81.16;101566.53;4978442;28;20400;-76
2023/06/30 00:24:46;;;;;;;3.72;1.55;;;;;;;14.71;81.00;101560.47;4960944;28;20026;-75
2023/06/30 00:27:11;;;;;;;1.85;1.42;;;;;;;14.70;80.85;101558.78;4978063;28;20039;-75
2023/06/30 00:29:37;;;;;;;2.83;1.35;;;;;;;14.69;80.89;101550.94;4978209;28;20389;-75
2023/06/30 00:32:02;;;;;;;2.10;1.40;;;;;;;14.66;80.94;101551.97;4977716;28;20265;-76
2023/06/30 00:34:28;;;;;;;4.13;1.83;;;;;;;14.64;80.90;101548.50;5001774;28;20037;-75
2023/06/30 00:36:53;;;;;;;1.83;1.27;;;;;;;14.63;81.27;101551.25;4998144;28;20060;-75
2023/06/30 00:39:19;;;;;;;3.15;1.50;;;;;;;14.62;81.30;101553.00;5009864;28;20038;-75
2023/06/30 00:41:44;;;;;;;2.45;1.58;;;;;;;14.58;81.44;101549.66;4979765;28;20256;-75
2023/06/30 00:44:09;;;;;;;2.47;1.55;;;;;;;14.57;81.34;101549.69;4979062;28;20057;-75
2023/06/30 00:46:35;;;;;;;1.63;1.33;;;;;;;14.54;81.17;101541.94;4996164;28;20097;-75
2023/06/30 00:49:01;;;;;;;1.48;1.35;;;;;;;14.53;81.14;101537.59;4978890;28;20451;-75
2023/06/30 00:51:26;;;;;;;5.07;1.80;;;;;;;14.52;81.21;101549.06;4997462;28;20213;-75
2023/06/30 00:53:52;;;;;;;2.10;1.58;;;;;;;14.51;81.41;101545.56;4979098;28;20325;-75
2023/06/30 00:56:17;;;;;;;1.60;1.42;;;;;;;14.49;81.26;101549.19;4979647;28;20037;-75
2023/06/30 00:58:43;;;;;;;2.53;1.40;;;;;;;14.46;81.55;101552.84;4979712;28;20261;-75
2023/06/30 01:01:20;;;;;;;1.90;1.50;;;;;;;14.44;81.54;101540.63;4996673;28;20032;-76
2023/06/30 01:03:55;;;;;;;2.80;1.40;;;;;;;14.41;81.31;101544.28;4996859;28;20042;-75
2023/06/30 01:06:45;;;;;;;2.13;1.27;;;;;;;14.38;81.55;101547.91;4996988;28;20062;-76
2023/06/30 01:09:18;;;;;;;1.92;1.52;;;;;;;14.36;81.74;101546.28;4996788;28;20221;-75
2023/06/30 01:11:43;;;;;;;1.30;1.20;;;;;;;14.34;81.50;101551.59;4979503;28;20022;-75
2023/06/30 01:14:11;;;;;;;2.65;1.40;;;;;;;14.31;81.66;101551.72;4996658;28;20440;-75
2023/06/30 01:16:39;;;;;;;3.92;1.98;;;;;;;14.29;81.82;101547.47;4996718;28;20359;-75
2023/06/30 01:19:15;;;;;;;2.35;1.52;;;;;;;14.27;81.76;101554.59;4996424;28;20031;-75
2023/06/30 01:21:41;;;;;;;1.42;1.33;;;;;;;14.25;81.67;101548.53;4996837;28;20065;-75
2023/06/30 01:24:11;;;;;;;2.10;1.83;;;;;;;14.21;81.51;101550.44;4996438;28;20105;-75
2023/06/30 01:26:37;;;;;;;4.13;1.80;;;;;;;14.18;81.81;101542.69;4997105;28;20102;-75
2023/06/30 01:29:06;;;;;;;1.60;1.50;;;;;;;14.17;81.85;101549.72;4996734;28;20040;-75
2023/06/30 01:31:32;;;;;;;4.10;1.98;;;;;;;14.16;81.54;101549.78;4996811;28;20038;-75
2023/06/30 01:34:02;;;;;;;1.98;1.55;;;;;;;14.14;81.55;101546.38;5003662;28;20030;-75
2023/06/30 01:36:27;;;;;;;4.03;1.70;;;;;;;14.12;81.49;101551.72;5016461;28;20038;-76
2023/06/30 01:38:53;;;;;;;3.95;1.60;;;;;;;14.09;81.83;101543.94;4994359;28;20107;-75
2023/06/30 01:41:20;;;;;;;3.50;1.73;;;;;;;14.08;81.57;101546.63;4996668;28;20046;-75
2023/06/30 01:43:47;;;;;;;1.60;1.50;;;;;;;14.06;81.82;101541.47;4979279;28;20046;-75
2023/06/30 01:46:13;;;;;;;2.83;1.58;;;;;;;14.04;81.71;101543.28;4996857;28;20245;-76
2023/06/30 01:48:40;;;;;;;3.65;1.80;;;;;;;14.01;81.62;101539.00;4999530;28;20325;-76
2023/06/30 01:51:06;;;;;;;1.80;1.70;;;;;;;13.99;81.90;101538.22;4999787;28;20042;-76
2023/06/30 01:53:32;;;;;;;3.35;2.03;;;;;;;13.96;81.92;101538.34;5000510;28;20041;-75
2023/06/30 01:55:58;;;;;;;1.40;1.30;;;;;;;13.93;81.99;101538.47;4982050;28;20030;-76
2023/06/30 01:58:24;;;;;;;2.25;1.88;;;;;;;13.91;82.12;101532.41;5000512;28;20302;-75
2023/06/30 02:00:49;;;;;;;1.85;1.63;;;;;;;13.89;82.17;101534.28;4982505;28;20014;-76
2023/06/30 02:03:14;;;;;;;1.80;1.50;;;;;;;13.87;82.03;101530.84;5001944;28;20367;-76
2023/06/30 02:05:40;;;;;;;2.15;1.50;;;;;;;13.85;82.13;101524.81;5001798;28;20053;-76
2023/06/30 02:08:05;;;;;;;3.13;1.77;;;;;;;13.83;81.96;101529.28;5000952;28;20125;-77
2023/06/30 02:10:31;;;;;;;2.45;1.92;;;;;;;13.82;82.15;101530.19;5001534;28;20308;-77
2023/06/30 02:12:57;;;;;;;6.35;1.70;;;;;;;13.79;81.85;101511.91;4998377;28;20045;-77
2023/06/30 02:15:22;;;;;;;3.08;1.70;;;;;;;13.77;81.95;101521.63;4999201;28;20067;-77
2023/06/30 02:17:48;;;;;;;3.08;1.50;;;;;;;13.75;82.00;101524.34;4998575;28;20233;-77
2023/06/30 02:20:13;;;;;;;1.83;1.52;;;;;;;13.73;82.18;101522.69;4998984;28;20053;-77
2023/06/30 02:22:39;;;;;;;2.40;1.52;;;;;;;13.71;82.05;101524.53;4998722;28;20266;-77
2023/06/30 02:25:05;;;;;;;3.72;1.55;;;;;;;13.69;82.01;101519.34;4980733;28;20026;-77
2023/06/30 02:27:30;;;;;;;1.70;1.52;;;;;;;13.68;82.13;101524.66;4980959;28;20112;-77
2023/06/30 02:30:05;;;;;;;2.78;1.58;;;;;;;13.66;81.99;101519.50;4998285;28;20040;-77
2023/06/30 02:32:37;;;;;;;1.70;1.60;;;;;;;13.63;82.04;101525.72;4999573;28;20133;-76
2023/06/30 02:35:05;;;;;;;1.88;1.63;;;;;;;13.62;82.38;101521.41;5015684;28;20105;-76
2023/06/30 02:37:30;;;;;;;1.40;1.30;;;;;;;13.60;82.39;101525.84;5019250;28;20064;-75
2023/06/30 02:39:55;;;;;;;3.08;1.30;;;;;;;13.59;82.17;101525.94;5006658;28;20396;-76
2023/06/30 02:42:21;;;;;;;2.85;1.60;;;;;;;13.57;82.07;101526.00;4999382;28;20038;-76
2023/06/30 02:44:46;;;;;;;2.22;1.40;;;;;;;13.56;82.23;101531.31;4981741;28;20025;-76
2023/06/30 02:47:11;;;;;;;1.75;1.65;;;;;;;13.54;82.16;101523.47;4999198;28;20034;-75
2023/06/30 02:49:37;;;;;;;1.52;1.27;;;;;;;13.53;82.26;101523.53;4999011;28;20034;-76
2023/06/30 02:52:02;;;;;;;3.15;1.65;;;;;;;13.51;82.33;101528.88;4998539;28;20041;-76
2023/06/30 02:54:28;;;;;;;2.22;1.50;;;;;;;13.50;82.34;101528.94;4997971;28;20401;-76
2023/06/30 02:56:53;;;;;;;1.73;1.60;;;;;;;13.49;82.60;101522.81;4981300;28;20114;-75
2023/06/30 02:59:19;;;;;;;1.30;1.20;;;;;;;13.48;82.35;101517.63;4980471;28;20030;-76
2023/06/30 03:01:44;;;;;;;2.88;1.60;;;;;;;13.45;82.42;101518.63;4981629;28;20030;-76
2023/06/30 03:04:10;;;;;;;1.88;1.30;;;;;;;13.45;82.56;101526.50;5005724;28;20038;-76
2023/06/30 03:06:35;;;;;;;1.67;1.50;;;;;;;13.42;82.66;101522.25;4998404;28;20064;-76
2023/06/30 03:09:01;;;;;;;1.73;1.40;;;;;;;13.42;82.57;101510.84;4997866;28;20305;-75
2023/06/30 03:11:26;;;;;;;1.45;1.35;;;;;;;13.42;82.46;101516.09;4998880;28;20041;-76
2023/06/30 03:13:52;;;;;;;1.40;1.30;;;;;;;13.40;82.53;101516.16;4998326;28;20030;-76
2023/06/30 03:16:17;;;;;;;1.88;1.42;;;;;;;13.40;82.47;101512.69;4998354;28;20116;-76
2023/06/30 03:18:43;;;;;;;2.20;1.50;;;;;;;13.40;82.49;101515.31;4998485;28;20042;-76
2023/06/30 03:21:08;;;;;;;3.22;1.50;;;;;;;13.40;82.78;101520.56;4980027;28;20108;-76
2023/06/30 03:23:34;;;;;;;3.45;1.40;;;;;;;13.39;82.56;101518.88;4998775;28;20033;-76
2023/06/30 03:25:59;;;;;;;2.47;1.23;;;;;;;13.38;82.73;101519.78;4997538;28;20034;-76
2023/06/30 03:28:24;;;;;;;1.52;1.42;;;;;;;13.37;82.56;101521.56;4998483;28;20034;-76
2023/06/30 03:30:50;;;;;;;2.15;1.63;;;;;;;13.37;83.05;101526.81;4996972;28;20041;-76
2023/06/30 03:33:15;;;;;;;1.33;1.20;;;;;;;13.37;82.73;101515.44;4998616;28;20210;-75
2023/06/30 03:35:41;;;;;;;1.58;1.25;;;;;;;13.37;82.79;101518.06;4998909;28;20324;-75
2023/06/30 03:38:06;;;;;;;2.30;1.15;;;;;;;13.34;82.69;101521.69;5016027;28;20312;-76
2023/06/30 03:40:31;;;;;;;1.65;1.35;;;;;;;13.34;83.00;101518.22;4979259;28;20102;-76
2023/06/30 03:42:57;;;;;;;1.33;1.10;;;;;;;13.34;82.87;101510.31;4977195;28;20340;-75
2023/06/30 03:45:22;;;;;;;3.78;1.42;;;;;;;13.34;82.94;101513.78;4977984;28;20097;-76
2023/06/30 03:47:48;;;;;;;2.00;1.10;;;;;;;13.34;83.21;101512.94;4978344;28;20031;-76
2023/06/30 03:50:13;;;;;;;2.78;1.40;;;;;;;13.33;83.08;101513.84;4960537;28;20019;-75
2023/06/30 03:52:38;;;;;;;1.70;1.40;;;;;;;13.33;83.19;101513.84;4978747;28;20046;-76
2023/06/30 03:55:04;;;;;;;1.63;1.40;;;;;;;13.34;83.11;101508.53;4978198;28;20049;-76
2023/06/30 03:57:29;;;;;;;1.80;1.30;;;;;;;13.33;83.16;101511.22;4978413;28;20375;-76
2023/06/30 03:59:55;;;;;;;2.20;1.70;;;;;;;13.35;83.41;101509.38;4960588;28;20038;-76
2023/06/30 04:02:21;;;;;;;1.83;1.25;;;;;;;13.36;83.30;101519.00;4978388;28;20097;-76
2023/06/30 04:04:46;;;;;;;1.70;1.35;;;;;;;13.35;83.33;101517.28;5006333;28;20365;-76
2023/06/30 04:07:11;;;;;;;2.20;1.73;;;;;;;13.36;83.42;101504.06;5017015;28;20233;-76
2023/06/30 04:09:37;;;;;;;4.18;1.40;;;;;;;13.37;83.69;101502.28;5007788;28;20054;-76
2023/06/30 04:12:02;;;;;;;1.33;1.23;;;;;;;13.38;83.47;101502.22;4997322;28;20048;-76
2023/06/30 04:14:27;;;;;;;3.45;1.23;;;;;;;13.39;83.77;101497.84;4997749;28;20336;-76
2023/06/30 04:16:53;;;;;;;2.70;1.10;;;;;;;13.40;83.78;101504.78;4997284;28;20045;-76
2023/06/30 04:19:18;;;;;;;1.85;1.27;;;;;;;13.40;83.84;101494.25;4997698;28;20026;-76
2023/06/30 04:21:44;;;;;;;3.17;1.50;;;;;;;13.41;83.68;101499.47;4997520;28;20037;-76
2023/06/30 04:24:09;;;;;;;2.38;1.45;;;;;;;13.42;83.76;101501.19;4995536;28;20018;-76
2023/06/30 04:26:35;;;;;;;1.20;1.10;;;;;;;13.45;83.99;101502.81;4997772;28;20344;-76
2023/06/30 04:29:00;;;;;;;1.83;1.30;;;;;;;13.47;83.94;101502.75;4979113;28;20060;-76
2023/06/30 04:31:26;;;;;;;1.98;1.40;;;;;;;13.48;84.15;101496.56;4997509;28;20037;-76
2023/06/30 04:33:52;;;;;;;2.15;1.40;;;;;;;13.50;84.08;101505.25;5003883;28;20057;-76
2023/06/30 04:36:20;;;;;;;4.40;1.40;;;;;;;13.50;84.17;101498.22;5016921;28;20041;-76
2023/06/30 04:38:48;;;;;;;1.70;1.20;;;;;;;13.52;84.51;101495.53;4996681;28;20101;-76
2023/06/30 04:41:14;;;;;;;3.10;1.30;;;;;;;13.54;84.43;101499.81;4979589;28;20033;-76
2023/06/30 04:43:40;;;;;;;2.03;1.20;;;;;;;13.57;84.37;101504.06;4997268;28;20033;-76
2023/06/30 04:46:06;;;;;;;1.30;1.17;;;;;;;13.59;84.59;101504.88;4997250;28;20089;-76
2023/06/30 04:48:32;;;;;;;3.33;1.10;;;;;;;13.61;84.64;101510.94;4997529;28;20060;-76
2023/06/30 04:50:57;;;;;;;1.63;1.30;;;;;;;13.61;84.58;101513.56;4996913;28;20034;-76
2023/06/30 04:53:22;;;;;;;1.73;1.30;;;;;;;13.63;84.66;101511.72;4995606;28;20030;-76
2023/06/30 04:55:49;;;;;;;2.78;1.27;;;;;;;13.66;84.61;101516.84;4978714;28;20041;-76
2023/06/30 04:58:14;;;;;;;2.33;1.42;;;;;;;13.68;84.98;101512.38;4996659;28;20038;-76
2023/06/30 05:00:40;;;;;;;1.48;1.10;;;;;;;13.70;84.75;101513.16;4996811;28;20061;-76
2023/06/30 05:03:05;;;;;;;1.83;1.30;;;;;;;13.73;84.85;101514.78;4997001;28;20026;-76
2023/06/30 05:05:31;;;;;;;2.38;1.20;;;;;;;13.75;84.99;101518.22;4998177;28;20276;-76
2023/06/30 05:07:56;;;;;;;3.78;1.20;;;;;;;13.77;84.58;101511.97;5012468;28;20049;-76
2023/06/30 05:10:22;;;;;;;2.42;1.40;;;;;;;13.81;85.11;101513.56;4976101;28;20510;-76
2023/06/30 05:12:48;;;;;;;3.10;1.30;;;;;;;13.84;85.19;101509.91;4959821;28;20070;-76
2023/06/30 05:15:14;;;;;;;4.70;1.60;;;;;;;13.87;85.18;101509.78;4977039;28;20045;-76
2023/06/30 05:17:39;;;;;;;3.05;2.00;;;;;;;13.89;85.13;101507.94;4960176;28;20054;-76
2023/06/30 05:20:08;;;;;;;9.63;1.92;;;;;;;13.91;85.45;101506.09;4959270;28;20042;-76
2023/06/30 05:22:33;;;;;;;;;;;;;;;13.94;85.53;101510.38;4961090;28;20037;-76
2023/06/30 05:24:58;;;;;;;4.32;1.83;;;;;;;13.95;85.55;101512.09;4980625;28;19914;-76
2023/06/30 05:27:24;;;;;;;5.85;2.20;;;;;;;13.97;85.87;101505.84;4981022;28;20039;-76
2023/06/30 05:29:49;;;;;;;5.53;2.05;;;;;;;13.98;85.68;101493.53;4980936;28;20034;-76
2023/06/30 05:32:14;;;;;;;3.75;1.80;;;;;;;14.01;86.02;101496.03;4963299;28;20042;-76
2023/06/30 05:34:41;;;;;;;4.85;1.60;;;;;;;14.02;86.09;101501.22;5007641;28;20635;-76
2023/06/30 05:37:07;;;;;;;2.72;1.83;;;;;;;14.04;86.47;101501.13;5020029;28;20336;-76
2023/06/30 05:39:32;;;;;;;2.80;1.83;;;;;;;14.07;86.54;101497.53;4990171;28;20105;-76
2023/06/30 05:41:57;;;;;;;3.25;2.10;;;;;;;14.08;86.32;101497.47;4980353;28;20038;-76
2023/06/30 05:44:23;;;;;;;3.38;1.80;;;;;;;14.12;86.48;101499.03;4981031;28;20045;-76
2023/06/30 05:46:48;;;;;;;4.85;2.10;;;;;;;14.15;86.22;101508.56;4962975;28;20321;-76
2023/06/30 05:49:14;;;;;;;2.50;1.60;;;;;;;14.18;86.25;101504.00;4980713;28;20042;-76
2023/06/30 05:51:39;;;;;;;2.10;1.55;;;;;;;14.20;86.09;101504.78;4981066;28;20229;-76
2023/06/30 05:54:05;;;;;;;2.20;1.70;;;;;;;14.23;86.13;101498.53;4980428;28;20272;-76
2023/06/30 05:56:31;;;;;;;1.52;1.40;;;;;;;14.26;86.46;101501.06;4980782;28;20286;-76
2023/06/30 05:58:57;;;;;;;3.65;1.55;;;;;;;14.30;86.02;101501.78;4980749;28;20189;-76
2023/06/30 06:01:23;;;;;;;2.40;1.88;;;;;;;14.32;86.24;101497.28;4980328;28;20042;-76
2023/06/30 06:03:48;;;;;;;3.20;1.70;;;;;;;14.34;86.06;101506.81;4993253;28;20302;-76
2023/06/30 06:06:14;;;;;;;4.10;1.90;;;;;;;14.36;85.80;101510.22;5001768;28;20345;-76
2023/06/30 06:08:43;;;;;;;4.38;1.60;;;;;;;14.37;85.73;101504.03;5018251;28;20206;-76
2023/06/30 06:11:09;;;;;;;2.42;1.33;;;;;;;14.40;85.82;101506.50;4999911;28;20037;-76
2023/06/30 06:13:38;;;;;;;1.67;1.58;;;;;;;14.44;85.84;101501.09;5000499;28;20413;-76
2023/06/30 06:16:05;;;;;;;3.22;1.63;;;;;;;14.47;85.70;101503.63;4982090;28;20026;-76
2023/06/30 06:18:30;;;;;;;1.48;1.33;;;;;;;14.48;85.79;101500.03;5000379;28;20042;-76
2023/06/30 06:20:57;;;;;;;2.65;1.55;;;;;;;14.52;85.82;101501.63;4999721;28;20085;-76
2023/06/30 06:23:23;;;;;;;2.67;1.70;;;;;;;14.54;85.85;101502.41;4982597;28;20073;-76
2023/06/30 06:25:49;;;;;;;2.92;1.55;;;;;;;14.57;85.67;101505.78;4999564;28;20042;-76
2023/06/30 06:28:15;;;;;;;1.60;1.50;;;;;;;14.61;85.66;101500.34;4999947;28;20113;-76
2023/06/30 06:30:41;;;;;;;1.67;1.58;;;;;;;14.64;86.12;101502.84;4999918;28;20097;-76
2023/06/30 06:33:06;;;;;;;1.42;1.30;;;;;;;14.65;85.96;101505.41;4999653;28;20285;-76
2023/06/30 06:35:33;;;;;;;1.92;1.42;;;;;;;14.68;85.93;101504.41;5018784;28;20037;-76
2023/06/30 06:37:59;;;;;;;2.75;1.52;;;;;;;14.71;85.81;101505.13;5019141;28;20044;-76
2023/06/30 06:40:24;;;;;;;3.15;1.38;;;;;;;14.74;85.91;101498.88;5003446;28;20221;-76
2023/06/30 06:42:50;;;;;;;2.70;1.40;;;;;;;14.76;85.70;101505.75;4999630;28;20120;-76
2023/06/30 06:45:17;;;;;;;1.50;1.40;;;;;;;14.80;85.94;101509.09;4999323;28;20042;-76
2023/06/30 06:48:16;;;;;;;4.25;1.48;;;;;;;14.84;86.01;101504.53;4999298;28;20084;-76
2023/06/30 06:50:42;;;;;;;2.45;1.48;;;;;;;14.86;85.79;101503.56;4999621;28;20038;-76
2023/06/30 06:53:08;;;;;;;1.92;1.30;;;;;;;14.90;86.25;101504.25;4998881;28;20227;-75
2023/06/30 06:55:33;;;;;;;1.60;1.35;;;;;;;14.92;85.65;101511.16;4999364;28;20045;-76
2023/06/30 06:57:59;;;;;;;1.98;1.23;;;;;;;14.95;85.54;101505.75;4999071;28;20046;-76
2023/06/30 07:00:25;;;;;;;1.40;1.30;;;;;;;14.98;85.51;101500.28;4999485;28;20038;-75
2023/06/30 07:02:52;;;;;;;2.33;1.70;;;;;;;15.01;85.48;101496.69;4998915;28;20042;-75
2023/06/30 07:05:17;;;;;;;3.42;1.70;;;;;;;15.05;85.24;101498.22;5017414;28;20245;-75
2023/06/30 07:07:43;;;;;;;1.13;1.10;;;;;;;15.08;85.19;101497.22;5018715;28;20307;-76
2023/06/30 07:10:08;;;;;;;1.48;1.38;;;;;;;15.10;85.06;101498.00;5004534;28;20345;-76
2023/06/30 07:12:34;;;;;;;2.15;1.27;;;;;;;15.13;84.90;101508.41;4999564;28;20030;-76
2023/06/30 07:14:59;;;;;;;2.20;1.50;;;;;;;15.17;84.63;101502.03;4998333;28;20042;-76
2023/06/30 07:17:24;;;;;;;1.67;1.20;;;;;;;15.21;84.40;101498.34;4998602;28;20038;-76
2023/06/30 07:19:50;;;;;;;2.80;1.35;;;;;;;15.24;84.34;101499.94;4998128;28;20106;-76
2023/06/30 07:22:15;;;;;;;5.10;1.70;;;;;;;15.26;84.06;101500.72;4998645;28;20378;-75
2023/06/30 07:24:41;;;;;;;2.10;1.10;;;;;;;15.29;84.02;101496.16;4998916;28;20033;-76
2023/06/30 07:27:06;;;;;;;2.30;1.10;;;;;;;15.34;83.57;101503.84;4998036;28;20060;-76
2023/06/30 07:29:31;;;;;;;2.75;1.35;;;;;;;15.36;83.42;101499.34;4981407;28;20096;-76
2023/06/30 07:31:57;;;;;;;1.20;1.10;;;;;;;15.41;83.07;101496.47;5008833;28;20088;-75
2023/06/30 07:34:23;;;;;;;1.15;1.00;;;;;;;15.44;82.78;101497.16;4984364;28;20042;-75
2023/06/30 07:36:53;;;;;;;2.45;1.52;;;;;;;15.48;82.90;101496.09;4996257;28;20037;-75
2023/06/30 07:39:19;;;;;;;2.25;1.20;;;;;;;15.53;82.56;101494.09;4995132;28;20275;-76
2023/06/30 07:41:44;;;;;;;2.30;0.95;;;;;;;15.55;82.13;101500.13;4997714;28;20239;-76
2023/06/30 07:44:11;;;;;;;2.05;1.50;;;;;;;15.60;81.53;101502.53;4976380;28;20124;-76
2023/06/30 07:46:37;;;;;;;1.67;1.20;;;;;;;15.63;81.37;101485.69;4977952;28;20030;-76
2023/06/30 07:49:03;;;;;;;0.90;0.90;;;;;;;15.69;80.89;101488.84;4996057;28;20030;-76
2023/06/30 07:51:29;;;;;;;1.67;1.58;;;;;;;15.72;81.17;101491.34;4996247;28;20033;-76
2023/06/30 07:53:55;;;;;;;1.73;1.02;;;;;;;15.78;81.21;101491.97;4995665;28;20042;-76
2023/06/30 07:56:20;;;;;;;2.72;1.23;;;;;;;15.82;81.24;101485.59;4993918;28;20034;-76
2023/06/30 07:58:45;;;;;;;1.20;1.13;;;;;;;15.85;80.95;101486.28;4993935;28;20248;-75
2023/06/30 08:01:11;;;;;;;3.80;1.38;;;;;;;15.88;80.57;101479.97;4977664;28;20026;-75
2023/06/30 08:03:36;;;;;;;1.20;1.10;;;;;;;15.90;80.52;101484.25;5003820;28;20030;-75
2023/06/30 08:06:02;;;;;;;1.40;1.00;;;;;;;15.92;80.51;101476.28;4999181;28;20177;-75
2023/06/30 08:08:30;;;;;;;1.30;1.17;;;;;;;15.96;80.43;101484.88;4999636;28;20060;-75
2023/06/30 08:10:55;;;;;;;1.58;1.20;;;;;;;15.98;80.12;101483.84;4993611;28;20045;-75
2023/06/30 08:13:20;;;;;;;4.05;1.55;;;;;;;16.00;80.07;101479.34;4991743;28;20126;-75
2023/06/30 08:15:46;;;;;;;3.25;1.55;;;;;;;16.01;79.90;101475.78;4988540;28;20038;-76
2023/06/30 08:18:11;;;;;;;3.65;1.92;;;;;;;16.05;79.56;101487.88;4995991;28;20084;-75
2023/06/30 08:20:37;;;;;;;2.22;1.20;;;;;;;16.07;79.43;101488.66;4995859;28;20268;-76
2023/06/30 08:23:03;;;;;;;1.17;1.08;;;;;;;16.11;79.23;101486.69;4995325;28;20057;-75
2023/06/30 08:25:28;;;;;;;3.05;1.17;;;;;;;16.11;78.87;101482.25;4995858;28;20237;-76
2023/06/30 08:27:54;;;;;;;3.95;1.20;;;;;;;16.12;78.41;101472.56;4995243;28;20041;-76
2023/06/30 08:30:19;;;;;;;1.83;1.40;;;;;;;16.15;78.48;101476.81;4995683;28;20304;-76
2023/06/30 08:32:44;;;;;;;1.60;1.00;;;;;;;16.18;78.48;101472.22;4995386;28;20230;-75
2023/06/30 08:35:10;;;;;;;3.92;1.55;;;;;;;16.21;78.25;101472.06;4998884;28;20364;-75
2023/06/30 08:37:36;;;;;;;1.35;1.10;;;;;;;16.26;77.64;101472.66;4993701;28;20030;-75
2023/06/30 08:40:01;;;;;;;1.60;1.40;;;;;;;16.26;77.69;101470.03;4994785;28;20060;-76
2023/06/30 08:42:29;;;;;;;2.13;1.40;;;;;;;16.28;77.26;101468.16;4993366;28;20041;-75
2023/06/30 08:44:57;;;;;;;1.75;1.10;;;;;;;16.31;77.12;101459.19;4993234;28;20030;-75
2023/06/30 08:47:25;;;;;;;2.10;1.27;;;;;;;16.33;77.11;101464.38;4995193;28;20065;-76
2023/06/30 08:49:54;;;;;;;;;;;;;;;16.35;77.12;101450.13;4986828;28;20038;-75
2023/06/30 08:52:21;;;;;;;1.38;1.23;;;;;;;16.36;76.73;101453.66;4994918;28;19924;-76
2023/06/30 08:54:46;;;;;;;1.85;1.10;;;;;;;16.40;76.45;101444.63;4993879;28;20381;-75
2023/06/30 08:57:15;;;;;;;2.88;1.27;;;;;;;16.44;75.78;101446.13;4993604;28;20037;-75
2023/06/30 08:59:41;;;;;;;;;;;;;;;16.48;75.82;101439.72;4994613;28;20105;-75
2023/06/30 09:02:07;;;;;;;4.72;1.55;;;;;;;16.49;75.59;101438.81;4993673;28;20287;-76
2023/06/30 09:04:33;;;;;;;2.80;1.17;;;;;;;16.51;75.32;101439.56;5005703;28;20026;-76
2023/06/30 09:07:02;;;;;;;2.33;1.40;;;;;;;16.55;75.33;101446.38;4995514;28;20045;-76
2023/06/30 09:09:32;;;;;;;1.48;1.10;;;;;;;16.59;75.13;101440.00;4990291;28;20061;-76
2023/06/30 09:11:57;;;;;;;1.35;1.08;;;;;;;16.63;75.16;101445.97;4993900;28;20348;-76
2023/06/30 09:14:24;;;;;;;2.35;1.30;;;;;;;16.65;75.02;101436.16;4994114;28;20045;-75
2023/06/30 09:16:49;;;;;;;1.15;1.05;;;;;;;16.69;74.94;101435.88;4994784;28;20300;-76
2023/06/30 09:19:15;;;;;;;2.28;1.13;;;;;;;16.73;74.55;101431.28;4995925;28;20255;-76
2023/06/30 09:21:41;;;;;;;2.78;1.13;;;;;;;16.76;73.21;101430.25;4995634;28;20038;-76
2023/06/30 09:24:06;;;;;;;1.98;1.30;;;;;;;16.78;73.72;101425.72;4995446;28;20038;-76
2023/06/30 09:26:34;;;;;;;2.90;1.10;;;;;;;16.79;73.78;101425.66;4995731;28;20081;-76
2023/06/30 09:29:00;;;;;;;1.73;1.20;;;;;;;16.80;73.14;101422.06;4989694;28;20534;-76
2023/06/30 09:31:30;;;;;;;2.83;1.20;;;;;;;16.85;72.77;101419.19;4992659;28;20405;-76
2023/06/30 09:34:11;;;;;;;1.60;0.88;;;;;;;16.90;72.15;101427.72;4996903;28;20339;-75
2023/06/30 09:36:47;;;;;;;3.17;1.27;;;;;;;16.91;72.17;101418.81;5000869;28;20117;-76
2023/06/30 09:39:13;;;;;;;1.50;1.05;;;;;;;16.96;72.42;101421.22;4991642;28;20053;-76
2023/06/30 09:41:41;;;;;;;1.88;1.13;;;;;;;16.98;72.57;101420.16;4993753;28;20030;-76
2023/06/30 09:44:08;;;;;;;;;;;;;;;17.00;72.67;101417.44;4995180;28;20049;-76
2023/06/30 09:46:33;;;;;;;2.38;1.20;;;;;;;17.00;72.83;101420.94;4995115;28;20136;-76
2023/06/30 09:49:01;;;;;;;2.22;1.20;;;;;;;17.01;72.72;101421.81;4994495;28;20094;-76
2023/06/30 09:51:30;;;;;;;3.15;1.27;;;;;;;17.02;73.37;101415.53;4977586;28;20066;-76
2023/06/30 09:53:56;;;;;;;3.10;1.25;;;;;;;17.04;73.25;101434.81;4993123;28;20236;-76
2023/06/30 09:56:22;;;;;;;2.15;0.98;;;;;;;17.05;73.18;101425.97;4977873;28;20097;-76
2023/06/30 09:58:49;;;;;;;2.50;1.30;;;;;;;17.06;72.77;101422.34;4974030;28;20058;-76
2023/06/30 10:01:20;;;;;;;1.35;1.10;;;;;;;17.08;72.93;101416.06;4979391;28;20105;-76
2023/06/30 10:03:48;;;;;;;2.55;1.23;;;;;;;17.14;73.14;101414.00;4996824;28;20048;-76
2023/06/30 10:06:14;;;;;;;3.92;1.50;;;;;;;17.20;73.90;101413.63;5014584;28;20057;-76
2023/06/30 10:08:39;;;;;;;1.33;1.23;;;;;;;17.29;73.70;101404.28;5014810;28;20034;-76
2023/06/30 10:11:07;;;;;;;1.48;1.33;;;;;;;17.36;73.88;101410.91;4998474;28;20305;-76
2023/06/30 10:13:33;;;;;;;1.23;1.13;;;;;;;17.39;73.66;101402.75;4979662;28;20046;-76
2023/06/30 10:15:58;;;;;;;1.20;1.10;;;;;;;17.43;73.58;101402.50;4979360;28;20200;-76
2023/06/30 10:18:24;;;;;;;4.95;1.85;;;;;;;17.46;73.74;101409.38;4988471;28;20371;-76
2023/06/30 10:20:50;;;;;;;1.75;1.50;;;;;;;17.50;73.26;101410.06;4996949;28;20073;-76
2023/06/30 10:23:20;;;;;;;2.50;1.85;;;;;;;17.52;72.76;101402.88;4996343;28;20058;-76
2023/06/30 10:25:46;;;;;;;2.78;1.20;;;;;;;17.53;72.61;101405.41;4997442;28;20041;-76
2023/06/30 10:28:12;;;;;;;2.58;1.33;;;;;;;17.55;72.60;101400.03;4978839;28;20034;-76
2023/06/30 10:30:38;;;;;;;1.70;1.30;;;;;;;17.54;72.59;101399.19;4996502;28;20353;-76
2023/06/30 10:33:03;;;;;;;3.90;1.70;;;;;;;17.54;72.40;101391.25;4978690;28;20294;-76
2023/06/30 10:35:30;;;;;;;2.22;1.60;;;;;;;17.57;72.00;101390.19;5017333;28;20075;-76
2023/06/30 10:37:56;;;;;;;2.45;1.58;;;;;;;17.58;70.82;101390.13;5017029;28;20029;-76
2023/06/30 10:40:29;;;;;;;3.40;1.85;;;;;;;17.61;71.09;101386.44;5000298;28;20038;-76
2023/06/30 10:42:56;;;;;;;1.80;1.27;;;;;;;17.62;70.92;101386.31;4996181;28;20034;-76
2023/06/30 10:45:29;;;;;;;1.90;1.40;;;;;;;17.64;70.98;101375.63;4997180;28;20291;-76
2023/06/30 10:47:55;;;;;;;3.65;1.45;;;;;;;17.63;70.93;101385.38;4979414;28;20034;-76
2023/06/30 10:50:22;;;;;;;2.10;1.40;;;;;;;17.62;71.22;101382.81;4997496;28;20213;-76
2023/06/30 10:52:52;;;;;;;1.70;1.27;;;;;;;17.62;71.01;101385.47;4997177;28;20038;-76
2023/06/30 10:55:27;;;;;;;2.97;1.58;;;;;;;17.64;70.31;101376.50;4998549;28;20585;-76
2023/06/30 10:57:53;;;;;;;1.20;1.10;;;;;;;17.70;70.42;101371.75;4997575;28;20034;-76
2023/06/30 11:00:26;;;;;;;1.77;1.40;;;;;;;17.77;70.58;101378.38;4997706;28;20325;-76
2023/06/30 11:02:59;;;;;;;4.45;1.70;;;;;;;17.81;70.23;101372.81;4997831;28;20030;-76
2023/06/30 11:05:27;;;;;;;2.05;1.52;;;;;;;17.87;70.27;101366.28;4999590;28;20368;-76
2023/06/30 11:07:53;;;;;;;3.90;1.55;;;;;;;17.94;70.14;101375.56;5017018;28;20112;-76
2023/06/30 11:10:27;;;;;;;2.17;1.50;;;;;;;17.99;69.51;101376.13;5002031;28;20333;-76
2023/06/30 11:12:55;;;;;;;2.72;1.42;;;;;;;18.03;69.50;101367.03;4997480;28;20042;-76
2023/06/30 11:15:25;;;;;;;3.80;1.30;;;;;;;18.07;69.60;101372.13;4997620;28;20048;-76
2023/06/30 11:17:51;;;;;;;1.85;1.20;;;;;;;18.08;69.67;101368.53;4997456;28;20124;-76
2023/06/30 11:20:17;;;;;;;12.05;1.67;;;;;;;18.07;69.27;101364.19;4996567;28;20112;-76
2023/06/30 11:22:55;;;;;;;3.65;1.40;;;;;;;18.08;68.58;101368.53;4997574;28;20034;-76